sensor_id;sensor_type;location;lat;lon;timestamp;temperature;humidity
52481;DHT22;38393;52.404;13.532;2024-01-15T00:01:02;2.50;99.90
52481;DHT22;38393;52.404;13.532;2024-01-15T00:03:28;2.60;99.90
52481;DHT22;38393;52.404;13.532;2024-01-15T00:05:54;2.70;99.90
52481;DHT22;38393;52.404;13.532;2024-01-15T00:08:19;2.50;99.90
52481;DHT22;38393;52.404;13.532;2024-01-15T00:10:45;2.40;99.90
52481;DHT22;38393;52.404;13.532;2024-01-15T00:13:10;2.50;99.90
52481;DHT22;38393;52.404;13.532;2024-01-15T00:15:36;2.30;99.90
52481;DHT22;38393;52.404;13.532;2024-01-15T00:18:01;2.20;99.90
52481;DHT22;38393;52.404;13.532;2024-01-15T00:20:27;2.30;99.90
52481;DHT22;38393;52.404;13.532;2024-01-15T00:22:52;2.20;99.90
52481;DHT22;38393;52.404;13.532;2024-01-15T00:25:17;2.20;99.90
52481;DHT22;38393;52.404;13.532;2024-01-15T00:27:43;2.20;99.90
52481;DHT22;38393;52.404;13.532;2024-01-15T00:30:09;2.20;99.90
52481;DHT22;38393;52.404;13.532;2024-01-15T00:32:34;2.30;99.90
52481;DHT22;38393;52.404;13.532;2024-01-15T00:35:00;2.30;99.90
52481;DHT22;38393;52.404;13.532;2024-01-15T00:37:25;2.10;99.90
52481;DHT22;38393;52.404;13.532;2024-01-15T00:39:51;2.30;99.90
52481;DHT22;38393;52.404;13.532;2024-01-15T00:42:16;2.30;99.90
52481;DHT22;38393;52.404;13.532;2024-01-15T00:44:42;2.30;99.90
52481;DHT22;38393;52.404;13.532;2024-01-15T00:47:07;2.30;99.90
52481;DHT22;38393;52.404;13.532;2024-01-15T00:49:33;2.20;99.90
52481;DHT22;38393;52.404;13.532;2024-01-15T00:51:58;2.40;99.90
52481;DHT22;38393;52.404;13.532;2024-01-15T00:54:24;2.40;99.90
52481;DHT22;38393;52.404;13.532;2024-01-15T00:56:49;2.30;99.90
52481;DHT22;38393;52.404;13.532;2024-01-15T00:59:15;2.20;99.90
52481;DHT22;38393;52.404;13.532;2024-01-15T01:01:41;2.40;99.90
52481;DHT22;38393;52.404;13.532;2024-01-15T01:04:09;2.40;99.90
52481;DHT22;38393;52.404;13.532;2024-01-15T01:06:34;2.40;99.90
52481;DHT22;38393;52.404;13.532;2024-01-15T01:09:00;2.40;99.90
52481;DHT22;38393;52.404;13.532;2024-01-15T01:11:26;2.30;99.90
52481;DHT22;38393;52.404;13.532;2024-01-15T01:13:51;2.40;99.90
52481;DHT22;38393;52.404;13.532;2024-01-15T01:16:17;2.40;99.90
52481;DHT22;38393;52.404;13.532;2024-01-15T01:18:42;2.40;99.90
52481;DHT22;38393;52.404;13.532;2024-01-15T01:21:08;2.30;99.90
52481;DHT22;38393;52.404;13.532;2024-01-15T01:23:33;2.30;99.90
52481;DHT22;38393;52.404;13.532;2024-01-15T01:25:58;2.30;99.90
52481;DHT22;38393;52.404;13.532;2024-01-15T01:28:24;2.30;99.90
52481;DHT22;38393;52.404;13.532;2024-01-15T01:30:49;2.30;99.90
52481;DHT22;38393;52.404;13.532;2024-01-15T01:33:15;2.30;99.90
52481;DHT22;38393;52.404;13.532;2024-01-15T01:35:41;2.40;99.90
52481;DHT22;38393;52.404;13.532;2024-01-15T01:38:06;2.30;99.90
52481;DHT22;38393;52.404;13.532;2024-01-15T01:40:32;2.30;99.90
52481;DHT22;38393;52.404;13.532;2024-01-15T01:42:57;2.10;99.90
52481;DHT22;38393;52.404;13.532;2024-01-15T01:45:22;2.20;99.90
52481;DHT22;38393;52.404;13.532;2024-01-15T01:47:48;2.20;99.90
52481;DHT22;38393;52.404;13.532;2024-01-15T01:50:14;2.00;99.90
52481;DHT22;38393;52.404;13.532;2024-01-15T01:52:40;2.00;99.90
52481;DHT22;38393;52.404;13.532;2024-01-15T01:55:06;1.90;99.90
52481;DHT22;38393;52.404;13.532;2024-01-15T01:57:32;1.90;99.90
52481;DHT22;38393;52.404;13.532;2024-01-15T02:00:00;1.90;99.90
52481;DHT22;38393;52.404;13.532;2024-01-15T02:02:25;1.90;99.90
52481;DHT22;38393;52.404;13.532;2024-01-15T02:04:51;1.80;99.90
52481;DHT22;38393;52.404;13.532;2024-01-15T02:07:16;1.90;99.90
52481;DHT22;38393;52.404;13.532;2024-01-15T02:09:44;1.80;99.90
52481;DHT22;38393;52.404;13.532;2024-01-15T02:12:09;1.90;99.90
52481;DHT22;38393;52.404;13.532;2024-01-15T02:14:35;2.00;99.90
52481;DHT22;38393;52.404;13.532;2024-01-15T02:17:00;2.10;99.90
52481;DHT22;38393;52.404;13.532;2024-01-15T02:19:26;2.10;99.90
52481;DHT22;38393;52.404;13.532;2024-01-15T02:21:51;2.10;99.90
52481;DHT22;38393;52.404;13.532;2024-01-15T02:24:17;2.10;99.90
52481;DHT22;38393;52.404;13.532;2024-01-15T02:26:42;2.10;99.90
52481;DHT22;38393;52.404;13.532;2024-01-15T02:29:08;2.30;99.90
52481;DHT22;38393;52.404;13.532;2024-01-15T02:31:35;2.20;99.90
52481;DHT22;38393;52.404;13.532;2024-01-15T02:34:01;2.10;99.90
52481;DHT22;38393;52.404;13.532;2024-01-15T02:36:26;2.20;99.90
52481;DHT22;38393;52.404;13.532;2024-01-15T02:38:52;2.30;99.90
52481;DHT22;38393;52.404;13.532;2024-01-15T02:41:17;2.20;99.90
52481;DHT22;38393;52.404;13.532;2024-01-15T02:43:43;1.90;99.90
52481;DHT22;38393;52.404;13.532;2024-01-15T02:46:08;2.10;99.90
52481;DHT22;38393;52.404;13.532;2024-01-15T02:48:34;1.90;99.90
52481;DHT22;38393;52.404;13.532;2024-01-15T02:51:02;2.00;99.90
52481;DHT22;38393;52.404;13.532;2024-01-15T02:53:28;1.90;99.90
52481;DHT22;38393;52.404;13.532;2024-01-15T02:55:53;2.00;99.90
52481;DHT22;38393;52.404;13.532;2024-01-15T02:58:19;2.00;99.90
52481;DHT22;38393;52.404;13.532;2024-01-15T03:00:44;2.00;99.90
52481;DHT22;38393;52.404;13.532;2024-01-15T03:03:10;2.00;99.90
52481;DHT22;38393;52.404;13.532;2024-01-15T03:05:35;2.00;99.90
52481;DHT22;38393;52.404;13.532;2024-01-15T03:08:01;2.00;99.90
52481;DHT22;38393;52.404;13.532;2024-01-15T03:10:26;1.90;99.90
52481;DHT22;38393;52.404;13.532;2024-01-15T03:12:51;2.00;99.90
52481;DHT22;38393;52.404;13.532;2024-01-15T03:15:17;2.00;99.90
52481;DHT22;38393;52.404;13.532;2024-01-15T03:17:43;2.00;99.90
52481;DHT22;38393;52.404;13.532;2024-01-15T03:20:09;2.00;99.90
52481;DHT22;38393;52.404;13.532;2024-01-15T03:22:35;2.00;99.90
52481;DHT22;38393;52.404;13.532;2024-01-15T03:25:00;2.00;99.90
52481;DHT22;38393;52.404;13.532;2024-01-15T03:27:26;2.00;99.90
52481;DHT22;38393;52.404;13.532;2024-01-15T03:29:51;1.90;99.90
52481;DHT22;38393;52.404;13.532;2024-01-15T03:32:17;2.10;99.90
52481;DHT22;38393;52.404;13.532;2024-01-15T03:34:42;2.10;99.90
52481;DHT22;38393;52.404;13.532;2024-01-15T03:37:08;2.10;99.90
52481;DHT22;38393;52.404;13.532;2024-01-15T03:39:33;2.00;99.90
52481;DHT22;38393;52.404;13.532;2024-01-15T03:41:59;2.10;99.90
52481;DHT22;38393;52.404;13.532;2024-01-15T03:44:24;2.20;99.90
52481;DHT22;38393;52.404;13.532;2024-01-15T03:46:50;2.10;99.90
52481;DHT22;38393;52.404;13.532;2024-01-15T03:49:15;2.20;99.90
52481;DHT22;38393;52.404;13.532;2024-01-15T03:51:41;2.20;99.90
52481;DHT22;38393;52.404;13.532;2024-01-15T03:54:06;2.20;99.90
52481;DHT22;38393;52.404;13.532;2024-01-15T03:56:32;2.00;99.90
52481;DHT22;38393;52.404;13.532;2024-01-15T03:58:57;2.10;99.90
52481;DHT22;38393;52.404;13.532;2024-01-15T04:01:23;2.20;99.90
52481;DHT22;38393;52.404;13.532;2024-01-15T04:03:48;2.10;99.90
52481;DHT22;38393;52.404;13.532;2024-01-15T04:06:14;2.10;99.90
52481;DHT22;38393;52.404;13.532;2024-01-15T04:08:39;2.20;99.90
52481;DHT22;38393;52.404;13.532;2024-01-15T04:11:04;2.20;99.90
52481;DHT22;38393;52.404;13.532;2024-01-15T04:13:32;2.20;99.90
52481;DHT22;38393;52.404;13.532;2024-01-15T04:15:58;2.20;99.90
52481;DHT22;38393;52.404;13.532;2024-01-15T04:18:23;2.20;99.90
52481;DHT22;38393;52.404;13.532;2024-01-15T04:20:49;2.20;99.90
52481;DHT22;38393;52.404;13.532;2024-01-15T04:23:14;2.20;99.90
52481;DHT22;38393;52.404;13.532;2024-01-15T04:25:39;2.20;99.90
52481;DHT22;38393;52.404;13.532;2024-01-15T04:28:08;2.20;99.90
52481;DHT22;38393;52.404;13.532;2024-01-15T04:30:34;2.30;99.90
52481;DHT22;38393;52.404;13.532;2024-01-15T04:32:59;2.10;99.90
52481;DHT22;38393;52.404;13.532;2024-01-15T04:35:25;2.30;99.90
52481;DHT22;38393;52.404;13.532;2024-01-15T04:37:50;2.20;99.90
52481;DHT22;38393;52.404;13.532;2024-01-15T04:40:15;2.20;99.90
52481;DHT22;38393;52.404;13.532;2024-01-15T04:42:41;2.30;99.90
52481;DHT22;38393;52.404;13.532;2024-01-15T04:45:07;2.40;99.90
52481;DHT22;38393;52.404;13.532;2024-01-15T04:47:32;2.30;99.90
52481;DHT22;38393;52.404;13.532;2024-01-15T04:49:58;2.40;99.90
52481;DHT22;38393;52.404;13.532;2024-01-15T04:52:23;2.30;99.90
52481;DHT22;38393;52.404;13.532;2024-01-15T04:54:49;2.30;99.90
52481;DHT22;38393;52.404;13.532;2024-01-15T04:57:15;2.40;99.90
52481;DHT22;38393;52.404;13.532;2024-01-15T04:59:40;2.30;99.90
52481;DHT22;38393;52.404;13.532;2024-01-15T05:02:06;2.30;99.90
52481;DHT22;38393;52.404;13.532;2024-01-15T05:04:31;2.20;99.90
52481;DHT22;38393;52.404;13.532;2024-01-15T05:06:58;2.20;99.90
52481;DHT22;38393;52.404;13.532;2024-01-15T05:09:23;2.10;99.90
52481;DHT22;38393;52.404;13.532;2024-01-15T05:11:49;2.30;99.90
52481;DHT22;38393;52.404;13.532;2024-01-15T05:14:14;2.10;99.90
52481;DHT22;38393;52.404;13.532;2024-01-15T05:16:46;2.30;99.90
52481;DHT22;38393;52.404;13.532;2024-01-15T05:19:11;2.30;99.90
52481;DHT22;38393;52.404;13.532;2024-01-15T05:21:37;2.30;99.90
52481;DHT22;38393;52.404;13.532;2024-01-15T05:24:02;2.20;99.90
52481;DHT22;38393;52.404;13.532;2024-01-15T05:26:28;2.20;99.90
52481;DHT22;38393;52.404;13.532;2024-01-15T05:28:53;2.10;99.90
52481;DHT22;38393;52.404;13.532;2024-01-15T05:31:18;2.10;99.90
52481;DHT22;38393;52.404;13.532;2024-01-15T05:33:44;2.10;99.90
52481;DHT22;38393;52.404;13.532;2024-01-15T05:36:10;2.10;99.90
52481;DHT22;38393;52.404;13.532;2024-01-15T05:38:35;2.20;99.90
52481;DHT22;38393;52.404;13.532;2024-01-15T05:41:01;2.10;99.90
52481;DHT22;38393;52.404;13.532;2024-01-15T05:43:26;2.30;99.90
52481;DHT22;38393;52.404;13.532;2024-01-15T05:45:52;2.30;99.90
52481;DHT22;38393;52.404;13.532;2024-01-15T05:48:17;2.40;99.90
52481;DHT22;38393;52.404;13.532;2024-01-15T05:50:42;2.40;99.90
52481;DHT22;38393;52.404;13.532;2024-01-15T05:53:08;2.50;99.90
52481;DHT22;38393;52.404;13.532;2024-01-15T05:55:36;2.40;99.90
52481;DHT22;38393;52.404;13.532;2024-01-15T05:58:01;2.50;99.90
52481;DHT22;38393;52.404;13.532;2024-01-15T06:00:27;2.50;99.90
52481;DHT22;38393;52.404;13.532;2024-01-15T06:02:52;2.50;99.90
52481;DHT22;38393;52.404;13.532;2024-01-15T06:05:18;2.60;99.90
52481;DHT22;38393;52.404;13.532;2024-01-15T06:07:43;2.40;99.90
52481;DHT22;38393;52.404;13.532;2024-01-15T06:10:09;2.30;99.90
52481;DHT22;38393;52.404;13.532;2024-01-15T06:12:34;2.20;99.90
52481;DHT22;38393;52.404;13.532;2024-01-15T06:15:00;2.30;99.90
52481;DHT22;38393;52.404;13.532;2024-01-15T06:17:25;2.20;99.90
52481;DHT22;38393;52.404;13.532;2024-01-15T06:19:50;2.20;99.90
52481;DHT22;38393;52.404;13.532;2024-01-15T06:22:16;2.10;99.90
52481;DHT22;38393;52.404;13.532;2024-01-15T06:24:41;2.20;99.90
52481;DHT22;38393;52.404;13.532;2024-01-15T06:27:07;2.30;99.90
52481;DHT22;38393;52.404;13.532;2024-01-15T06:29:33;2.20;99.90
52481;DHT22;38393;52.404;13.532;2024-01-15T06:31:58;2.10;99.90
52481;DHT22;38393;52.404;13.532;2024-01-15T06:34:26;2.30;99.90
52481;DHT22;38393;52.404;13.532;2024-01-15T06:36:51;2.30;99.90
52481;DHT22;38393;52.404;13.532;2024-01-15T06:39:18;2.40;99.90
52481;DHT22;38393;52.404;13.532;2024-01-15T06:41:43;2.50;99.90
52481;DHT22;38393;52.404;13.532;2024-01-15T06:44:12;2.30;99.90
52481;DHT22;38393;52.404;13.532;2024-01-15T06:46:44;2.30;99.90
52481;DHT22;38393;52.404;13.532;2024-01-15T06:49:10;2.20;99.90
52481;DHT22;38393;52.404;13.532;2024-01-15T06:51:36;2.30;99.90
52481;DHT22;38393;52.404;13.532;2024-01-15T06:54:01;2.30;99.90
52481;DHT22;38393;52.404;13.532;2024-01-15T06:56:27;2.30;99.90
52481;DHT22;38393;52.404;13.532;2024-01-15T06:58:52;2.60;99.90
52481;DHT22;38393;52.404;13.532;2024-01-15T07:01:18;2.50;99.90
52481;DHT22;38393;52.404;13.532;2024-01-15T07:03:43;2.60;99.90
52481;DHT22;38393;52.404;13.532;2024-01-15T07:06:09;2.40;99.90
52481;DHT22;38393;52.404;13.532;2024-01-15T07:08:34;2.50;99.90
52481;DHT22;38393;52.404;13.532;2024-01-15T07:11:03;2.50;99.90
52481;DHT22;38393;52.404;13.532;2024-01-15T07:13:28;2.40;99.90
52481;DHT22;38393;52.404;13.532;2024-01-15T07:15:54;2.70;99.90
52481;DHT22;38393;52.404;13.532;2024-01-15T07:18:19;2.40;99.90
52481;DHT22;38393;52.404;13.532;2024-01-15T07:20:44;2.60;99.90
52481;DHT22;38393;52.404;13.532;2024-01-15T07:23:10;2.50;99.90
52481;DHT22;38393;52.404;13.532;2024-01-15T07:25:35;2.60;99.90
52481;DHT22;38393;52.404;13.532;2024-01-15T07:28:02;2.60;99.90
52481;DHT22;38393;52.404;13.532;2024-01-15T07:30:29;2.70;99.90
52481;DHT22;38393;52.404;13.532;2024-01-15T07:32:54;2.70;99.90
52481;DHT22;38393;52.404;13.532;2024-01-15T07:35:20;2.70;99.90
52481;DHT22;38393;52.404;13.532;2024-01-15T07:37:45;2.70;99.90
52481;DHT22;38393;52.404;13.532;2024-01-15T07:40:11;2.80;99.90
52481;DHT22;38393;52.404;13.532;2024-01-15T07:42:37;2.80;99.90
52481;DHT22;38393;52.404;13.532;2024-01-15T07:45:04;2.80;99.90
52481;DHT22;38393;52.404;13.532;2024-01-15T07:47:29;2.80;99.90
52481;DHT22;38393;52.404;13.532;2024-01-15T07:49:55;2.90;99.90
52481;DHT22;38393;52.404;13.532;2024-01-15T07:52:21;2.80;99.90
52481;DHT22;38393;52.404;13.532;2024-01-15T07:54:46;2.70;99.90
52481;DHT22;38393;52.404;13.532;2024-01-15T07:57:12;2.80;99.90
52481;DHT22;38393;52.404;13.532;2024-01-15T07:59:38;2.80;99.90
52481;DHT22;38393;52.404;13.532;2024-01-15T08:02:04;2.80;99.90
52481;DHT22;38393;52.404;13.532;2024-01-15T08:04:29;2.80;99.90
52481;DHT22;38393;52.404;13.532;2024-01-15T08:06:55;2.70;99.90
52481;DHT22;38393;52.404;13.532;2024-01-15T08:09:20;3.00;99.90
52481;DHT22;38393;52.404;13.532;2024-01-15T08:11:46;2.80;99.90
52481;DHT22;38393;52.404;13.532;2024-01-15T08:14:12;3.00;99.90
52481;DHT22;38393;52.404;13.532;2024-01-15T08:16:38;2.90;99.90
52481;DHT22;38393;52.404;13.532;2024-01-15T08:19:04;2.90;99.90
52481;DHT22;38393;52.404;13.532;2024-01-15T08:21:30;2.80;99.90
52481;DHT22;38393;52.404;13.532;2024-01-15T08:23:57;2.90;99.90
52481;DHT22;38393;52.404;13.532;2024-01-15T08:26:23;3.00;99.90
52481;DHT22;38393;52.404;13.532;2024-01-15T08:28:49;3.10;99.90
52481;DHT22;38393;52.404;13.532;2024-01-15T08:31:14;3.00;99.90
52481;DHT22;38393;52.404;13.532;2024-01-15T08:33:40;3.00;99.90
52481;DHT22;38393;52.404;13.532;2024-01-15T08:36:05;3.00;99.90
52481;DHT22;38393;52.404;13.532;2024-01-15T08:38:31;2.90;99.90
52481;DHT22;38393;52.404;13.532;2024-01-15T08:40:56;3.00;99.90
52481;DHT22;38393;52.404;13.532;2024-01-15T08:43:24;3.00;99.90
52481;DHT22;38393;52.404;13.532;2024-01-15T08:45:49;2.70;99.90
52481;DHT22;38393;52.404;13.532;2024-01-15T08:48:16;2.90;99.90
52481;DHT22;38393;52.404;13.532;2024-01-15T08:50:42;3.10;99.90
52481;DHT22;38393;52.404;13.532;2024-01-15T08:53:08;3.00;99.90
52481;DHT22;38393;52.404;13.532;2024-01-15T08:55:33;3.00;99.90
52481;DHT22;38393;52.404;13.532;2024-01-15T08:57:59;3.20;99.90
52481;DHT22;38393;52.404;13.532;2024-01-15T09:00:24;3.10;99.90
52481;DHT22;38393;52.404;13.532;2024-01-15T09:02:50;3.10;99.90
52481;DHT22;38393;52.404;13.532;2024-01-15T09:05:15;3.10;99.90
52481;DHT22;38393;52.404;13.532;2024-01-15T09:07:41;3.20;99.90
52481;DHT22;38393;52.404;13.532;2024-01-15T09:10:06;3.10;99.90
52481;DHT22;38393;52.404;13.532;2024-01-15T09:12:32;3.10;99.90
52481;DHT22;38393;52.404;13.532;2024-01-15T09:14:57;2.90;99.90
52481;DHT22;38393;52.404;13.532;2024-01-15T09:17:23;3.10;99.90
52481;DHT22;38393;52.404;13.532;2024-01-15T09:19:49;3.10;99.90
52481;DHT22;38393;52.404;13.532;2024-01-15T09:22:14;3.10;99.90
52481;DHT22;38393;52.404;13.532;2024-01-15T09:24:43;3.10;99.90
52481;DHT22;38393;52.404;13.532;2024-01-15T09:27:09;3.00;99.90
52481;DHT22;38393;52.404;13.532;2024-01-15T09:29:34;3.10;99.90
52481;DHT22;38393;52.404;13.532;2024-01-15T09:32:03;3.00;99.90
52481;DHT22;38393;52.404;13.532;2024-01-15T09:34:29;3.10;99.90
52481;DHT22;38393;52.404;13.532;2024-01-15T09:36:55;3.00;99.90
52481;DHT22;38393;52.404;13.532;2024-01-15T09:39:20;2.90;99.90
52481;DHT22;38393;52.404;13.532;2024-01-15T09:41:47;3.00;99.90
52481;DHT22;38393;52.404;13.532;2024-01-15T09:44:13;3.00;99.90
52481;DHT22;38393;52.404;13.532;2024-01-15T09:46:40;3.00;99.90
52481;DHT22;38393;52.404;13.532;2024-01-15T09:49:06;3.00;99.90
52481;DHT22;38393;52.404;13.532;2024-01-15T09:51:32;3.10;99.90
52481;DHT22;38393;52.404;13.532;2024-01-15T09:53:58;3.10;99.90
52481;DHT22;38393;52.404;13.532;2024-01-15T09:56:24;3.10;99.90
52481;DHT22;38393;52.404;13.532;2024-01-15T09:58:50;3.10;99.90
52481;DHT22;38393;52.404;13.532;2024-01-15T10:01:18;3.10;99.90
52481;DHT22;38393;52.404;13.532;2024-01-15T10:03:46;3.10;99.90
52481;DHT22;38393;52.404;13.532;2024-01-15T10:06:15;3.20;99.90
52481;DHT22;38393;52.404;13.532;2024-01-15T10:08:46;3.40;99.90
52481;DHT22;38393;52.404;13.532;2024-01-15T10:11:12;3.30;99.90
52481;DHT22;38393;52.404;13.532;2024-01-15T10:13:39;3.30;99.90
52481;DHT22;38393;52.404;13.532;2024-01-15T10:16:04;3.40;99.90
52481;DHT22;38393;52.404;13.532;2024-01-15T10:18:30;3.40;99.90
52481;DHT22;38393;52.404;13.532;2024-01-15T10:20:56;3.40;99.90
52481;DHT22;38393;52.404;13.532;2024-01-15T10:23:23;3.50;99.90
52481;DHT22;38393;52.404;13.532;2024-01-15T10:25:49;3.40;99.90
52481;DHT22;38393;52.404;13.532;2024-01-15T10:28:14;3.30;99.90
52481;DHT22;38393;52.404;13.532;2024-01-15T10:30:40;3.30;99.90
52481;DHT22;38393;52.404;13.532;2024-01-15T10:33:05;3.30;99.90
52481;DHT22;38393;52.404;13.532;2024-01-15T10:35:32;3.30;99.90
52481;DHT22;38393;52.404;13.532;2024-01-15T10:37:59;3.30;99.90
52481;DHT22;38393;52.404;13.532;2024-01-15T10:40:24;3.40;99.90
52481;DHT22;38393;52.404;13.532;2024-01-15T10:42:50;3.40;99.90
52481;DHT22;38393;52.404;13.532;2024-01-15T10:45:16;3.50;99.90
52481;DHT22;38393;52.404;13.532;2024-01-15T10:47:42;3.60;99.90
52481;DHT22;38393;52.404;13.532;2024-01-15T10:50:09;3.60;99.90
52481;DHT22;38393;52.404;13.532;2024-01-15T10:52:39;3.50;99.90
52481;DHT22;38393;52.404;13.532;2024-01-15T10:55:11;3.60;99.90
52481;DHT22;38393;52.404;13.532;2024-01-15T10:57:37;3.60;99.90
52481;DHT22;38393;52.404;13.532;2024-01-15T11:00:04;3.40;99.90
52481;DHT22;38393;52.404;13.532;2024-01-15T11:02:32;3.40;99.90
52481;DHT22;38393;52.404;13.532;2024-01-15T11:04:59;3.50;99.90
52481;DHT22;38393;52.404;13.532;2024-01-15T11:07:25;3.50;99.90
52481;DHT22;38393;52.404;13.532;2024-01-15T11:09:51;3.60;99.90
52481;DHT22;38393;52.404;13.532;2024-01-15T11:12:17;3.70;99.90
52481;DHT22;38393;52.404;13.532;2024-01-15T11:14:47;3.70;99.90
52481;DHT22;38393;52.404;13.532;2024-01-15T11:17:13;3.90;99.90
52481;DHT22;38393;52.404;13.532;2024-01-15T11:19:44;3.60;99.90
52481;DHT22;38393;52.404;13.532;2024-01-15T11:24:57;3.90;99.90
52481;DHT22;38393;52.404;13.532;2024-01-15T11:27:42;3.70;99.90
52481;DHT22;38393;52.404;13.532;2024-01-15T11:30:09;3.70;99.90
52481;DHT22;38393;52.404;13.532;2024-01-15T11:32:36;3.70;99.90
52481;DHT22;38393;52.404;13.532;2024-01-15T11:35:02;3.60;99.90
52481;DHT22;38393;52.404;13.532;2024-01-15T11:37:29;3.60;99.90
52481;DHT22;38393;52.404;13.532;2024-01-15T11:40:21;3.70;99.90
52481;DHT22;38393;52.404;13.532;2024-01-15T11:42:47;3.50;99.90
52481;DHT22;38393;52.404;13.532;2024-01-15T11:45:15;3.50;99.90
52481;DHT22;38393;52.404;13.532;2024-01-15T11:48:14;3.30;99.90
52481;DHT22;38393;52.404;13.532;2024-01-15T11:55:41;3.20;99.90
52481;DHT22;38393;52.404;13.532;2024-01-15T11:58:10;3.20;99.90
52481;DHT22;38393;52.404;13.532;2024-01-15T12:00:46;3.20;99.90
52481;DHT22;38393;52.404;13.532;2024-01-15T12:03:12;3.10;99.90
52481;DHT22;38393;52.404;13.532;2024-01-15T12:05:38;3.20;99.90
52481;DHT22;38393;52.404;13.532;2024-01-15T12:08:04;3.20;99.90
52481;DHT22;38393;52.404;13.532;2024-01-15T12:10:36;3.20;99.90
52481;DHT22;38393;52.404;13.532;2024-01-15T12:13:05;3.20;99.90
52481;DHT22;38393;52.404;13.532;2024-01-15T12:15:31;3.10;99.90
52481;DHT22;38393;52.404;13.532;2024-01-15T12:17:58;3.00;99.90
52481;DHT22;38393;52.404;13.532;2024-01-15T12:20:27;3.10;99.90
52481;DHT22;38393;52.404;13.532;2024-01-15T12:22:53;3.00;99.90
52481;DHT22;38393;52.404;13.532;2024-01-15T12:25:20;3.00;99.90
52481;DHT22;38393;52.404;13.532;2024-01-15T12:27:46;3.10;99.90
52481;DHT22;38393;52.404;13.532;2024-01-15T12:30:13;3.10;99.90
52481;DHT22;38393;52.404;13.532;2024-01-15T12:32:40;3.10;99.90
52481;DHT22;38393;52.404;13.532;2024-01-15T12:35:06;3.10;99.90
52481;DHT22;38393;52.404;13.532;2024-01-15T12:37:31;3.00;99.90
52481;DHT22;38393;52.404;13.532;2024-01-15T12:39:58;3.00;99.90
52481;DHT22;38393;52.404;13.532;2024-01-15T12:42:24;3.10;99.90
52481;DHT22;38393;52.404;13.532;2024-01-15T12:44:49;3.10;99.90
52481;DHT22;38393;52.404;13.532;2024-01-15T12:47:15;3.10;99.90
52481;DHT22;38393;52.404;13.532;2024-01-15T12:49:46;3.10;99.90
52481;DHT22;38393;52.404;13.532;2024-01-15T12:52:13;3.10;99.90
52481;DHT22;38393;52.404;13.532;2024-01-15T12:54:38;3.00;99.90
52481;DHT22;38393;52.404;13.532;2024-01-15T12:57:04;3.20;99.90
52481;DHT22;38393;52.404;13.532;2024-01-15T12:59:29;3.00;99.90
52481;DHT22;38393;52.404;13.532;2024-01-15T13:01:55;3.10;99.90
52481;DHT22;38393;52.404;13.532;2024-01-15T13:04:24;2.90;99.90
52481;DHT22;38393;52.404;13.532;2024-01-15T13:06:50;2.80;99.90
52481;DHT22;38393;52.404;13.532;2024-01-15T13:09:16;2.90;99.90
52481;DHT22;38393;52.404;13.532;2024-01-15T13:11:43;2.80;99.90
52481;DHT22;38393;52.404;13.532;2024-01-15T13:14:09;2.70;99.90
52481;DHT22;38393;52.404;13.532;2024-01-15T13:16:34;2.80;99.90
52481;DHT22;38393;52.404;13.532;2024-01-15T13:19:00;2.80;99.90
52481;DHT22;38393;52.404;13.532;2024-01-15T13:21:25;3.00;99.90
52481;DHT22;38393;52.404;13.532;2024-01-15T13:23:51;2.80;99.90
52481;DHT22;38393;52.404;13.532;2024-01-15T13:26:16;2.90;99.90
52481;DHT22;38393;52.404;13.532;2024-01-15T13:28:43;2.90;99.90
52481;DHT22;38393;52.404;13.532;2024-01-15T13:31:09;2.90;99.90
52481;DHT22;38393;52.404;13.532;2024-01-15T13:33:34;2.80;99.90
52481;DHT22;38393;52.404;13.532;2024-01-15T13:36:00;2.90;99.90
52481;DHT22;38393;52.404;13.532;2024-01-15T13:38:25;2.80;99.90
52481;DHT22;38393;52.404;13.532;2024-01-15T13:40:51;2.90;99.90
52481;DHT22;38393;52.404;13.532;2024-01-15T13:43:17;2.90;99.90
52481;DHT22;38393;52.404;13.532;2024-01-15T13:45:43;2.90;99.90
52481;DHT22;38393;52.404;13.532;2024-01-15T13:48:09;2.80;99.90
52481;DHT22;38393;52.404;13.532;2024-01-15T13:50:35;3.00;99.90
52481;DHT22;38393;52.404;13.532;2024-01-15T13:53:01;2.90;99.90
52481;DHT22;38393;52.404;13.532;2024-01-15T13:55:27;2.80;99.90
52481;DHT22;38393;52.404;13.532;2024-01-15T13:57:54;3.00;99.90
52481;DHT22;38393;52.404;13.532;2024-01-15T14:00:19;2.90;99.90
52481;DHT22;38393;52.404;13.532;2024-01-15T14:02:45;2.80;99.90
52481;DHT22;38393;52.404;13.532;2024-01-15T14:05:12;2.80;99.90
52481;DHT22;38393;52.404;13.532;2024-01-15T14:07:38;2.80;99.90
52481;DHT22;38393;52.404;13.532;2024-01-15T14:10:05;3.00;99.90
52481;DHT22;38393;52.404;13.532;2024-01-15T14:12:31;2.90;99.90
52481;DHT22;38393;52.404;13.532;2024-01-15T14:14:57;2.90;99.90
52481;DHT22;38393;52.404;13.532;2024-01-15T14:17:22;2.90;99.90
52481;DHT22;38393;52.404;13.532;2024-01-15T14:19:47;2.80;99.90
52481;DHT22;38393;52.404;13.532;2024-01-15T14:22:13;2.80;99.90
52481;DHT22;38393;52.404;13.532;2024-01-15T14:24:38;2.80;99.90
52481;DHT22;38393;52.404;13.532;2024-01-15T14:27:04;2.80;99.90
52481;DHT22;38393;52.404;13.532;2024-01-15T14:29:30;2.90;99.90
52481;DHT22;38393;52.404;13.532;2024-01-15T14:31:56;2.70;99.90
52481;DHT22;38393;52.404;13.532;2024-01-15T14:34:21;2.70;99.90
52481;DHT22;38393;52.404;13.532;2024-01-15T14:36:49;2.70;99.90
52481;DHT22;38393;52.404;13.532;2024-01-15T14:39:15;2.70;99.90
52481;DHT22;38393;52.404;13.532;2024-01-15T14:41:40;2.70;99.90
52481;DHT22;38393;52.404;13.532;2024-01-15T14:44:06;2.70;99.90
52481;DHT22;38393;52.404;13.532;2024-01-15T14:46:31;2.50;99.90
52481;DHT22;38393;52.404;13.532;2024-01-15T14:48:57;2.70;99.90
52481;DHT22;38393;52.404;13.532;2024-01-15T14:51:22;2.60;99.90
52481;DHT22;38393;52.404;13.532;2024-01-15T14:53:48;2.60;99.90
52481;DHT22;38393;52.404;13.532;2024-01-15T14:56:13;2.60;99.90
52481;DHT22;38393;52.404;13.532;2024-01-15T14:58:39;2.70;99.90
52481;DHT22;38393;52.404;13.532;2024-01-15T15:01:04;2.50;99.90
52481;DHT22;38393;52.404;13.532;2024-01-15T15:03:30;2.50;99.90
52481;DHT22;38393;52.404;13.532;2024-01-15T15:05:55;2.60;99.90
52481;DHT22;38393;52.404;13.532;2024-01-15T15:08:20;2.60;99.90
52481;DHT22;38393;52.404;13.532;2024-01-15T15:10:46;2.60;99.90
52481;DHT22;38393;52.404;13.532;2024-01-15T15:13:11;2.50;99.90
52481;DHT22;38393;52.404;13.532;2024-01-15T15:15:37;2.60;99.90
52481;DHT22;38393;52.404;13.532;2024-01-15T15:18:02;2.60;99.90
52481;DHT22;38393;52.404;13.532;2024-01-15T15:20:28;2.60;99.90
52481;DHT22;38393;52.404;13.532;2024-01-15T15:22:53;2.60;99.90
52481;DHT22;38393;52.404;13.532;2024-01-15T15:25:21;2.60;99.90
52481;DHT22;38393;52.404;13.532;2024-01-15T15:27:47;2.60;99.90
52481;DHT22;38393;52.404;13.532;2024-01-15T15:30:13;2.60;99.90